Time;durP1;ratioP1;P1;durP2;ratioP2;P2;SDS_P1;SDS_P2;PMS_P1;PMS_P2;Temp;Humidity;BMP_temperature;BMP_pressure;BME280_temperature;BME280_humidity;BME280_pressure;Samples;Min_cycle;Max_cycle;Signal;HPM_P1;HPM_P2
2022/11/01 00:02:08;;;;;;;9.40;3.50;;;;;;;-0.75;100.00;100081.92;1541556;93;21089;-80
2022/11/01 00:04:35;;;;;;;12.13;4.33;;;;;;;-0.77;100.00;100079.84;1541465;93;21110;-82
2022/11/01 00:07:03;;;;;;;9.60;4.10;;;;;;;-0.80;100.00;100076.92;1541212;93;21096;-81
2022/11/01 00:09:30;;;;;;;9.73;3.80;;;;;;;-0.80;100.00;100079.58;1541316;93;21134;-82
2022/11/01 00:11:59;;;;;;;11.97;3.93;;;;;;;-0.81;100.00;100076.53;1541231;93;21050;-81
2022/11/01 00:14:25;;;;;;;8.97;3.77;;;;;;;-0.80;100.00;100074.72;1541442;93;21078;-81
2022/11/01 00:16:52;;;;;;;10.70;4.23;;;;;;;-0.79;100.00;100075.11;1541397;93;21094;-81
2022/11/01 00:19:19;;;;;;;9.50;4.03;;;;;;;-0.79;100.00;100068.48;1581380;89;21067;-82
2022/11/01 00:21:47;;;;;;;13.57;4.87;;;;;;;-0.80;100.00;100070.74;1631186;87;21020;-81
2022/11/01 00:24:14;;;;;;;8.23;4.07;;;;;;;-0.81;100.00;100069.90;1644719;86;21051;-81
2022/11/01 00:26:42;;;;;;;9.10;4.07;;;;;;;-0.83;100.00;100068.30;1643485;87;21138;-81
2022/11/01 00:29:09;;;;;;;10.00;4.37;;;;;;;-0.86;100.00;100071.98;1643394;87;21047;-81
2022/11/01 00:31:37;;;;;;;9.10;4.37;;;;;;;-0.85;100.00;100070.17;1693282;82;20983;-81
2022/11/01 00:34:05;;;;;;;10.17;4.67;;;;;;;-0.85;100.00;100067.52;1740602;82;21014;-80
2022/11/01 00:36:33;;;;;;;12.73;4.67;;;;;;;-0.84;100.00;100067.91;1740831;82;20987;-81
2022/11/01 00:39:01;;;;;;;14.20;4.70;;;;;;;-0.84;100.00;100069.24;1740879;82;21007;-82
2022/11/01 00:41:27;;;;;;;11.63;5.00;;;;;;;-0.85;100.00;100069.73;1741005;82;20998;-81
2022/11/01 00:43:55;;;;;;;10.57;4.20;;;;;;;-0.87;100.00;100064.12;1740628;82;20987;-81
2022/11/01 00:46:22;;;;;;;13.63;4.93;;;;;;;-0.90;100.00;100070.94;1740702;82;21058;-82
2022/11/01 00:48:52;;;;;;;12.67;4.67;;;;;;;-0.93;100.00;100069.34;1740760;82;21031;-81
2022/11/01 00:51:18;;;;;;;11.77;4.43;;;;;;;-0.97;100.00;100070.02;1740705;82;21011;-82
2022/11/01 00:53:47;;;;;;;14.13;4.43;;;;;;;-0.99;100.00;100071.92;1741072;82;21068;-82
2022/11/01 00:56:14;;;;;;;9.90;4.50;;;;;;;-0.99;100.00;100073.73;1741058;82;21051;-79
2022/11/01 00:58:44;;;;;;;12.20;3.97;;;;;;;-1.01;100.00;100081.78;1761929;80;21058;-82
2022/11/01 01:01:11;;;;;;;12.47;5.47;;;;;;;-1.00;100.00;100070.69;1781154;79;21054;-81
2022/11/01 01:03:40;;;;;;;11.03;4.60;;;;;;;-1.01;100.00;100073.82;1781165;80;21537;-80
2022/11/01 01:06:07;;;;;;;17.37;5.37;;;;;;;-1.01;100.00;100065.86;1781182;80;21039;-81
2022/11/01 01:08:36;;;;;;;14.10;5.33;;;;;;;-1.02;100.00;100064.14;1781043;79;21023;-81
2022/11/01 01:11:03;;;;;;;14.70;5.57;;;;;;;-1.01;100.00;100067.64;1781159;80;21000;-81
2022/11/01 01:13:30;;;;;;;15.17;5.03;;;;;;;-1.01;100.00;100063.66;1780694;80;21338;-82
2022/11/01 01:15:56;;;;;;;17.30;5.30;;;;;;;-1.02;100.00;100059.31;1780769;80;20963;-82
2022/11/01 01:18:26;;;;;;;15.13;5.67;;;;;;;-1.05;100.00;100059.50;1745550;81;21038;-81
2022/11/01 01:21:03;;;;;;;12.83;5.10;;;;;;;-1.09;100.00;100060.66;1745127;82;21042;-81
2022/11/01 01:23:30;;;;;;;14.30;5.43;;;;;;;-1.14;100.00;100064.91;1779616;80;21031;-82
2022/11/01 01:25:59;;;;;;;13.70;4.63;;;;;;;-1.19;100.00;100070.52;1780927;80;21031;-82
2022/11/01 01:28:25;;;;;;;13.73;5.30;;;;;;;-1.22;100.00;100068.05;1780778;80;21058;-81
2022/11/01 01:30:52;;;;;;;13.17;5.80;;;;;;;-1.25;100.00;100066.91;1781415;80;21062;-82
2022/11/01 01:33:20;;;;;;;16.27;6.00;;;;;;;-1.27;100.00;100072.78;1780679;80;21077;-82
2022/11/01 01:35:47;;;;;;;15.47;5.37;;;;;;;-1.28;100.00;100062.27;1781301;80;20972;-80
2022/11/01 01:38:14;;;;;;;13.87;5.40;;;;;;;-1.28;100.00;100064.91;1781035;80;21007;-81
2022/11/01 01:40:41;;;;;;;13.93;5.20;;;;;;;-1.29;100.00;100068.05;1788764;79;21058;-81
2022/11/01 01:43:12;;;;;;;14.13;5.27;;;;;;;-1.29;100.00;100062.75;1788633;80;21054;-82
2022/11/01 01:45:40;;;;;;;12.43;4.90;;;;;;;-1.31;100.00;100063.32;1788806;80;21501;-81
2022/11/01 01:48:12;;;;;;;11.93;4.43;;;;;;;-1.32;100.00;100053.64;1788776;80;21014;-81
2022/11/01 01:50:50;;;;;;;9.50;4.20;;;;;;;-1.30;100.00;100057.53;1789077;80;21508;-81
2022/11/01 01:53:23;;;;;;;13.83;5.17;;;;;;;-1.31;100.00;100047.86;1789183;80;20995;-82
2022/11/01 01:56:06;;;;;;;10.90;4.20;;;;;;;-1.33;100.00;100046.62;1789368;80;21003;-82
2022/11/01 01:58:47;;;;;;;12.00;5.00;;;;;;;-1.34;100.00;100042.28;1781030;80;21059;-82
2022/11/01 02:01:14;;;;;;;15.00;5.50;;;;;;;-1.37;100.00;100047.28;1641651;86;21103;-82
2022/11/01 02:03:42;;;;;;;12.80;4.70;;;;;;;-1.38;100.00;100047.37;1641367;86;21082;-82
2022/11/01 02:06:13;;;;;;;16.97;5.80;;;;;;;-1.39;100.00;100038.58;1641404;87;21074;-82
2022/11/01 02:08:49;;;;;;;15.00;5.07;;;;;;;-1.41;100.00;100039.14;1641077;87;21082;-82
2022/11/01 02:11:18;;;;;;;16.80;5.33;;;;;;;-1.41;100.00;100036.49;1641475;87;21046;-82
2022/11/01 02:13:45;;;;;;;17.07;5.27;;;;;;;-1.40;100.00;100032.03;1641794;87;21038;-82
2022/11/01 02:16:40;;;;;;;13.37;5.70;;;;;;;-1.39;100.00;100029.29;1641295;86;21599;-81
2022/11/01 02:19:52;;;;;;;11.90;4.93;;;;;;;-1.38;100.00;100034.98;1641371;87;21069;-81
2022/11/01 02:22:52;;;;;;;15.93;4.93;;;;;;;-1.38;100.00;100037.64;1632508;87;21050;-81
2022/11/01 02:26:05;;;;;;;16.67;4.83;;;;;;;-1.38;100.00;100032.33;1571630;91;21096;-81
2022/11/01 02:28:44;;;;;;;11.80;4.75;;;;;;;-1.38;100.00;100027.03;1570214;90;21125;-82
2022/11/01 02:31:54;;;;;;;19.07;5.83;;;;;;;-1.37;100.00;100029.20;1568646;90;21112;-83
2022/11/01 02:34:31;;;;;;;15.13;4.73;;;;;;;-1.37;100.00;100031.84;1570911;90;21077;-82
2022/11/01 02:37:08;;;;;;;12.70;5.27;;;;;;;-1.37;100.00;100026.55;1549095;92;21573;-81
2022/11/01 02:39:40;;;;;;;13.97;4.97;;;;;;;-1.38;100.00;100027.03;1548482;93;21149;-81
2022/11/01 02:42:24;;;;;;;10.80;4.63;;;;;;;-1.39;100.00;100027.13;1547754;93;21055;-82
2022/11/01 02:44:56;;;;;;;10.50;4.57;;;;;;;-1.38;100.00;100030.13;1542847;93;21101;-82
2022/11/01 02:47:24;;;;;;;12.17;4.80;;;;;;;-1.40;100.00;100022.30;1513058;95;21095;-82
2022/11/01 02:49:53;;;;;;;12.77;5.10;;;;;;;-1.41;100.00;100025.04;1513370;95;21066;-82
2022/11/01 02:52:23;;;;;;;11.10;4.40;;;;;;;-1.43;100.00;100028.27;1491934;95;21156;-83
2022/11/01 02:54:59;;;;;;;12.07;4.67;;;;;;;-1.46;100.00;100023.98;1491526;96;21150;-82
2022/11/01 02:57:36;;;;;;;13.60;4.90;;;;;;;-1.47;100.00;100025.41;1500851;94;21065;-83
2022/11/01 03:00:21;;;;;;;12.93;4.83;;;;;;;-1.49;100.00;100020.19;1539791;89;21108;-83
2022/11/01 03:02:53;;;;;;;19.47;6.13;;;;;;;-1.51;100.00;100018.11;1526977;94;21068;-83
2022/11/01 03:05:34;;;;;;;13.97;5.17;;;;;;;-1.53;100.00;100017.36;1527192;94;21096;-83
2022/11/01 03:08:05;;;;;;;16.70;5.47;;;;;;;-1.54;100.00;100017.84;1527100;94;21088;-84
2022/11/01 03:10:51;;;;;;;15.35;5.22;;;;;;;-1.56;100.00;100018.41;1527289;94;21101;-83
2022/11/01 03:13:48;;;;;;;15.63;4.80;;;;;;;-1.56;100.00;100019.73;1513433;95;21072;-84
2022/11/01 03:16:32;;;;;;;15.07;5.37;;;;;;;-1.58;100.00;100020.28;1513181;95;21134;-82
2022/11/01 03:19:07;;;;;;;16.13;5.27;;;;;;;-1.59;100.00;100016.42;1523155;94;21141;-84
2022/11/01 03:21:47;;;;;;;15.30;5.90;;;;;;;-1.62;100.00;100012.14;1565521;91;21151;-83
2022/11/01 03:24:27;;;;;;;12.77;4.60;;;;;;;-1.65;100.00;100015.45;1544016;93;21080;-82
2022/11/01 03:27:04;;;;;;;12.50;4.77;;;;;;;-1.67;100.00;100013.37;1498548;96;21142;-83
2022/11/01 03:29:31;;;;;;;14.37;4.80;;;;;;;-1.68;100.00;100008.55;1498526;96;21571;-83
2022/11/01 03:32:00;;;;;;;14.50;4.77;;;;;;;-1.68;100.00;100015.19;1497978;96;21105;-84
2022/11/01 03:34:27;;;;;;;11.80;4.53;;;;;;;-1.68;100.00;100007.68;1497932;96;21200;-84
2022/11/01 03:36:58;;;;;;;9.10;4.13;;;;;;;-1.70;100.00;100011.75;1498280;95;21125;-82
2022/11/01 03:39:39;;;;;;;11.43;4.77;;;;;;;-1.73;100.00;100010.16;1498848;96;21101;-83
2022/11/01 03:42:10;;;;;;;10.53;4.53;;;;;;;-1.75;100.00;100018.67;1507658;95;21091;-83
2022/11/01 03:44:41;;;;;;;13.27;4.97;;;;;;;-1.80;100.00;100008.82;1509609;95;21040;-82
2022/11/01 03:47:08;;;;;;;10.90;4.40;;;;;;;-1.83;100.00;100008.16;1491178;96;21081;-84
2022/11/01 03:49:34;;;;;;;12.07;5.07;;;;;;;-1.87;100.00;100014.59;1497134;92;21113;-82
2022/11/01 03:52:02;;;;;;;9.57;3.93;;;;;;;-1.88;100.00;100017.70;1565706;92;21117;-83
2022/11/01 03:54:29;;;;;;;11.17;3.87;;;;;;;-1.89;100.00;100024.41;1565260;92;21511;-84
2022/11/01 03:56:57;;;;;;;11.07;3.93;;;;;;;-1.88;100.00;100015.05;1582332;89;21025;-83
2022/11/01 03:59:26;;;;;;;9.27;3.93;;;;;;;-1.85;100.00;100015.35;1641020;86;21046;-83
2022/11/01 04:01:54;;;;;;;11.77;4.80;;;;;;;-1.84;100.00;100017.03;1678551;86;21043;-83
2022/11/01 04:04:22;;;;;;;13.97;5.00;;;;;;;-1.85;100.00;100012.22;1678828;82;21015;-84
2022/11/01 04:06:50;;;;;;;10.87;4.53;;;;;;;-1.84;100.00;100011.73;1678554;85;21078;-84
2022/11/01 04:09:17;;;;;;;12.97;5.27;;;;;;;-1.84;100.00;100011.73;1678284;86;21027;-84
2022/11/01 04:11:44;;;;;;;16.33;5.83;;;;;;;-1.85;100.00;100003.42;1678390;86;21038;-84
2022/11/01 04:22:11;;;;;;;11.90;5.40;;;;;;;-1.88;100.00;100008.42;1639586;87;21103;-84
2022/11/01 04:24:38;;;;;;;14.63;5.53;;;;;;;-1.89;100.00;100008.50;1640047;88;21136;-84
2022/11/01 04:27:07;;;;;;;13.60;5.73;;;;;;;-1.90;100.00;100010.31;1640182;86;21056;-83
2022/11/01 04:29:35;;;;;;;13.57;5.47;;;;;;;-1.89;100.00;100009.38;1639986;88;21540;-85
2022/11/01 04:32:02;;;;;;;15.43;5.70;;;;;;;-1.88;100.00;100007.09;1639669;88;21076;-84
2022/11/01 04:34:42;;;;;;;15.23;6.07;;;;;;;-1.87;100.00;100002.19;1639665;88;21081;-84
2022/11/01 04:37:10;;;;;;;14.73;5.33;;;;;;;-1.83;100.00;100007.67;1639912;88;21032;-84
2022/11/01 04:39:37;;;;;;;13.70;5.57;;;;;;;-1.77;100.00;100005.11;1639621;88;21048;-81
2022/11/01 04:42:04;;;;;;;14.57;5.63;;;;;;;-1.72;100.00;100000.39;1639667;88;21135;-81
2022/11/01 04:44:32;;;;;;;19.60;6.33;;;;;;;-1.66;100.00;99996.05;1636171;88;21070;-82
2022/11/01 04:46:59;;;;;;;17.27;5.10;;;;;;;-1.60;100.00;99995.66;1667398;86;21093;-83
2022/11/01 04:49:26;;;;;;;13.93;5.90;;;;;;;-1.54;100.00;99987.80;1667031;86;21073;-82
2022/11/01 04:51:55;;;;;;;14.73;5.47;;;;;;;-1.50;100.00;99994.63;1667343;86;21546;-83
2022/11/01 04:54:22;;;;;;;14.57;5.57;;;;;;;-1.48;100.00;99996.71;1667257;86;21046;-83
2022/11/01 04:56:49;;;;;;;13.40;5.50;;;;;;;-1.42;100.00;99998.12;1690732;83;21058;-84
2022/11/01 04:59:15;;;;;;;14.93;5.60;;;;;;;-1.40;100.00;99997.55;1782023;80;21015;-84
2022/11/01 05:01:43;;;;;;;12.47;5.70;;;;;;;-1.36;100.00;99998.60;1782877;79;21497;-80
2022/11/01 05:04:10;;;;;;;16.07;5.93;;;;;;;-1.32;100.00;99991.30;1782717;79;21035;-82
2022/11/01 05:06:39;;;;;;;14.60;5.43;;;;;;;-1.26;100.00;99991.38;1782619;80;21011;-82
2022/11/01 05:09:06;;;;;;;16.53;6.30;;;;;;;-1.21;100.00;99996.77;1782642;79;21022;-82
2022/11/01 05:11:35;;;;;;;14.07;5.87;;;;;;;-1.13;100.00;99994.11;1782581;79;21015;-83
2022/11/01 05:14:03;;;;;;;13.90;6.07;;;;;;;-1.06;100.00;99996.29;1782650;80;21011;-81
2022/11/01 05:16:29;;;;;;;15.83;6.83;;;;;;;-0.97;100.00;99995.70;1782913;80;21003;-83
2022/11/01 05:18:56;;;;;;;16.87;6.60;;;;;;;-0.86;100.00;99996.81;1783100;79;21007;-82
2022/11/01 05:21:24;;;;;;;16.03;5.97;;;;;;;-0.74;100.00;99999.13;1782577;79;21544;-83
2022/11/01 05:23:51;;;;;;;17.03;6.43;;;;;;;-0.62;100.00;99997.88;1782481;79;21042;-81
2022/11/01 05:26:20;;;;;;;17.70;6.93;;;;;;;-0.47;100.00;99995.16;1772436;80;21074;-81
2022/11/01 05:28:47;;;;;;;18.33;6.63;;;;;;;-0.33;100.00;99991.58;1798845;79;21007;-81
2022/11/01 05:31:13;;;;;;;15.13;6.10;;;;;;;-0.22;100.00;99999.19;1783367;80;21047;-82
2022/11/01 05:33:41;;;;;;;15.80;6.47;;;;;;;-0.11;100.00;99997.62;1782989;79;21043;-81
2022/11/01 05:36:08;;;;;;;12.10;5.83;;;;;;;-0.02;100.00;100001.84;1783275;80;20983;-83
2022/11/01 05:38:36;;;;;;;18.37;6.60;;;;;;;0.06;100.00;100001.31;1783022;79;21031;-81
2022/11/01 05:41:03;;;;;;;19.87;7.30;;;;;;;0.17;100.00;99994.77;1783254;80;21047;-81
2022/11/01 05:43:30;;;;;;;14.73;6.30;;;;;;;0.26;100.00;99995.11;1783041;79;21289;-81
2022/11/01 05:46:04;;;;;;;18.97;7.33;;;;;;;0.34;100.00;99994.95;1783304;80;21058;-80
2022/11/01 05:48:32;;;;;;;18.48;6.75;;;;;;;0.43;100.00;99996.12;1783322;80;20987;-81
2022/11/01 05:50:59;;;;;;;17.20;7.23;;;;;;;0.53;100.00;99999.84;1783215;79;21453;-80
2022/11/01 05:53:26;;;;;;;15.63;7.37;;;;;;;0.64;100.00;100003.07;1783205;80;21051;-81
2022/11/01 05:55:56;;;;;;;19.87;8.27;;;;;;;0.75;100.00;99995.66;1783388;80;21003;-81
2022/11/01 05:58:25;;;;;;;23.17;8.60;;;;;;;0.86;100.00;99998.39;1783890;79;21042;-81
2022/11/01 06:01:00;;;;;;;23.23;9.07;;;;;;;1.00;100.00;100000.55;1783487;78;21022;-80
2022/11/01 06:03:27;;;;;;;18.87;7.03;;;;;;;1.14;100.00;100005.23;1784129;80;20983;-82
2022/11/01 06:05:56;;;;;;;19.10;7.50;;;;;;;1.32;100.00;100000.86;1749366;81;21513;-81
2022/11/01 06:08:24;;;;;;;23.90;7.87;;;;;;;1.49;100.00;99997.80;1745768;82;21018;-71
2022/11/01 06:10:58;;;;;;;21.55;6.70;;;;;;;1.69;100.00;100006.13;1739600;78;21316;31
2022/11/01 06:13:25;;;;;;;19.37;6.73;;;;;;;1.87;100.00;99999.39;1744415;82;21070;-69
2022/11/01 06:16:00;;;;;;;13.33;5.77;;;;;;;2.09;100.00;99999.95;1746524;81;21329;-72
2022/11/01 06:18:29;;;;;;;15.03;5.50;;;;;;;2.26;100.00;100007.14;1735334;82;20993;-68
2022/11/01 06:20:58;;;;;;;13.70;5.37;;;;;;;2.45;100.00;100010.08;1717956;83;21042;-73
2022/11/01 06:23:24;;;;;;;17.43;5.90;;;;;;;2.64;100.00;100009.48;1719498;83;21002;-70
2022/11/01 06:26:01;;;;;;;12.60;4.73;;;;;;;2.78;100.00;100015.08;1718819;83;21023;-72
2022/11/01 06:28:27;;;;;;;11.47;4.17;;;;;;;2.93;100.00;100008.98;1717011;83;21532;-73
2022/11/01 06:30:54;;;;;;;9.07;4.10;;;;;;;3.10;100.00;100025.47;1718963;83;21074;-73
2022/11/01 06:33:22;;;;;;;14.03;4.30;;;;;;;3.25;100.00;100024.25;1718227;83;21089;-71
2022/11/01 06:35:49;;;;;;;20.43;6.53;;;;;;;3.41;100.00;100039.39;1718049;83;21090;-70
2022/11/01 06:38:16;;;;;;;14.50;5.60;;;;;;;3.54;100.00;100035.72;1772562;81;21019;-73
2022/11/01 06:40:43;;;;;;;26.13;11.33;;;;;;;3.69;100.00;100049.66;1779976;80;21024;-73
2022/11/01 06:43:10;;;;;;;6.30;3.60;;;;;;;3.83;100.00;100060.06;1754049;81;21056;-70
2022/11/01 06:45:37;;;;;;;10.97;4.53;;;;;;;3.96;100.00;100074.10;1773308;81;21536;-71
2022/11/01 06:48:05;;;;;;;11.60;4.63;;;;;;;4.09;100.00;100090.01;1773692;81;21025;-70
2022/11/01 06:50:33;;;;;;;9.40;5.37;;;;;;;4.23;100.00;100097.35;1773351;81;21060;-72
2022/11/01 06:52:59;;;;;;;17.10;6.30;;;;;;;4.38;100.00;100112.13;1773730;81;21024;-73
2022/11/01 06:55:27;;;;;;;18.50;7.07;;;;;;;4.52;100.00;100120.34;1773507;81;20992;-70
2022/11/01 06:57:55;;;;;;;19.67;7.70;;;;;;;4.69;100.00;100130.94;1773487;81;21048;-74
2022/11/01 07:00:22;;;;;;;54.57;20.63;;;;;;;4.88;100.00;100140.44;1773388;80;21553;-71
2022/11/01 07:03:00;;;;;;;14.53;6.00;;;;;;;5.07;100.00;100150.93;1773341;80;21050;-69
2022/11/01 07:05:29;;;;;;;23.03;9.73;;;;;;;5.25;100.00;100168.08;1770958;81;21030;-71
2022/11/01 07:07:56;;;;;;;42.83;17.50;;;;;;;5.41;100.00;100179.66;1764706;80;21015;-70
2022/11/01 07:10:23;;;;;;;18.87;6.80;;;;;;;5.55;100.00;100193.20;1766353;81;21371;-70
2022/11/01 07:12:58;;;;;;;17.80;6.60;;;;;;;5.70;100.00;100217.81;1784982;80;21534;-71
2022/11/01 07:15:27;;;;;;;9.07;4.17;;;;;;;5.81;100.00;100223.60;1753205;82;20954;-69
2022/11/01 07:18:00;;;;;;;9.37;3.87;;;;;;;5.95;100.00;100247.37;1749379;82;21056;-72
2022/11/01 07:20:28;;;;;;;8.63;4.30;;;;;;;5.99;100.00;100267.62;1750173;82;20942;-71
2022/11/01 07:22:59;;;;;;;12.30;6.00;;;;;;;6.01;100.00;100285.77;1757973;82;21028;-71
2022/11/01 07:25:27;;;;;;;9.13;5.00;;;;;;;6.11;100.00;100299.25;1758427;82;21004;-70
2022/11/01 07:27:54;;;;;;;13.53;5.67;;;;;;;6.21;100.00;100318.90;1758775;82;21015;-71
2022/11/01 07:30:21;;;;;;;7.53;4.70;;;;;;;6.29;100.00;100322.77;1758374;82;21036;-70
2022/11/01 07:32:48;;;;;;;23.53;11.53;;;;;;;6.39;100.00;100335.23;1758659;80;21011;-70
2022/11/01 07:35:15;;;;;;;24.13;10.37;;;;;;;6.51;100.00;100339.15;1758415;82;21043;-68
2022/11/01 07:37:41;;;;;;;17.30;6.50;;;;;;;6.67;100.00;100343.48;1758406;82;21000;-70
2022/11/01 07:40:11;;;;;;;18.33;7.67;;;;;;;6.87;100.00;100347.55;1758452;82;21133;-70
2022/11/01 07:42:41;;;;;;;9.77;4.67;;;;;;;7.04;100.00;100364.34;1758659;82;21488;-72
2022/11/01 07:45:10;;;;;;;17.57;6.83;;;;;;;7.11;100.00;100380.27;1680693;85;21102;-70
2022/11/01 07:47:37;;;;;;;9.47;4.53;;;;;;;7.16;100.00;100397.34;1681015;85;21007;-71
2022/11/01 07:50:05;;;;;;;9.50;4.53;;;;;;;7.18;100.00;100404.27;1681106;85;21059;-70
2022/11/01 07:52:33;;;;;;;12.97;6.20;;;;;;;7.18;100.00;100415.52;1680897;85;21130;-69
2022/11/01 07:55:00;;;;;;;26.23;11.73;;;;;;;7.25;100.00;100426.08;1680718;85;21573;-70
2022/11/01 07:57:27;;;;;;;17.23;7.03;;;;;;;7.45;100.00;100423.39;1724781;83;21014;-73
2022/11/01 07:59:54;;;;;;;8.53;4.40;;;;;;;7.65;100.00;100430.96;1657600;85;21073;-71
2022/11/01 08:02:21;;;;;;;22.30;10.33;;;;;;;7.74;100.00;100443.08;1651047;87;21061;-70
2022/11/01 08:04:49;;;;;;;8.17;4.77;;;;;;;7.77;100.00;100445.97;1650650;87;21030;-69
2022/11/01 08:07:16;;;;;;;8.23;3.80;;;;;;;7.85;100.00;100453.35;1650901;87;21514;-72
2022/11/01 08:09:43;;;;;;;7.03;3.20;;;;;;;7.85;100.00;100463.61;1650652;87;21539;-71
2022/11/01 08:12:10;;;;;;;24.07;10.90;;;;;;;7.72;100.00;100465.73;1634546;87;21189;-72
2022/11/01 08:14:37;;;;;;;8.07;4.33;;;;;;;7.62;100.00;100472.48;1601446;90;21081;-72
2022/11/01 08:17:04;;;;;;;13.97;7.17;;;;;;;7.57;100.00;100482.31;1628306;86;21021;-71
2022/11/01 08:19:32;;;;;;;12.43;5.90;;;;;;;7.52;100.00;100479.19;1652485;87;21092;-72
2022/11/01 08:22:00;;;;;;;11.50;5.10;;;;;;;7.62;100.00;100479.71;1652157;87;21025;-72
2022/11/01 08:24:27;;;;;;;13.23;6.20;;;;;;;7.73;100.00;100476.36;1652211;87;21515;-71
2022/11/01 08:26:56;;;;;;;10.97;3.77;;;;;;;7.85;100.00;100473.55;1652356;87;21037;-72
2022/11/01 08:29:23;;;;;;;12.50;5.90;;;;;;;7.99;100.00;100482.53;1651895;87;21063;-73
2022/11/01 08:31:49;;;;;;;12.40;5.83;;;;;;;8.04;100.00;100491.03;1652244;87;21040;-74
2022/11/01 08:34:18;;;;;;;12.20;3.97;;;;;;;8.14;100.00;100489.17;1652081;87;20997;-75
2022/11/01 08:36:47;;;;;;;9.13;4.23;;;;;;;8.22;100.00;100488.44;1639382;87;21102;-73
2022/11/01 08:39:14;;;;;;;8.00;3.80;;;;;;;8.17;100.00;100490.72;1631638;87;21060;-72
2022/11/01 08:41:48;;;;;;;11.12;4.47;;;;;;;8.08;100.00;100507.75;1659418;83;21006;-70
2022/11/01 08:44:16;;;;;;;9.25;4.65;;;;;;;8.04;100.00;100499.58;1705779;83;21005;-73
2022/11/01 08:46:45;;;;;;;13.73;3.97;;;;;;;8.11;100.00;100498.88;1717808;82;20990;-75
2022/11/01 08:49:12;;;;;;;2.77;2.53;;;;;;;8.23;100.00;100501.41;1707866;84;21054;-72
2022/11/01 08:51:40;;;;;;;8.30;4.90;;;;;;;8.26;100.00;100503.81;1718916;82;21023;-76
2022/11/01 08:54:07;;;;;;;8.30;4.07;;;;;;;8.28;100.00;100492.39;1709907;84;21500;-76
2022/11/01 08:56:35;;;;;;;7.10;4.05;;;;;;;8.40;100.00;100502.02;1714984;82;21026;-73
2022/11/01 08:59:02;;;;;;;6.75;3.45;;;;;;;8.56;100.00;100501.43;1716558;84;21043;-76
2022/11/01 09:01:28;;;;;;;6.97;4.22;;;;;;;8.66;100.00;100500.91;1716835;84;21050;-75
2022/11/01 09:03:56;;;;;;;8.65;3.95;;;;;;;8.82;100.00;100494.88;1716673;84;21062;-74
2022/11/01 09:06:24;;;;;;;18.85;8.10;;;;;;;8.82;100.00;100504.32;1717034;84;21026;-73
2022/11/01 09:08:52;;;;;;;31.97;18.70;;;;;;;8.82;100.00;100503.45;1686835;85;21023;-73
2022/11/01 09:11:20;;;;;;;10.03;4.58;;;;;;;8.81;100.00;100493.17;1760564;81;21550;-75
2022/11/01 09:13:49;;;;;;;17.32;7.70;;;;;;;8.87;100.00;100497.98;1805583;78;21056;-76
2022/11/01 09:16:16;;;;;;;18.75;9.03;;;;;;;8.89;100.00;100492.45;1805001;78;21440;-76
2022/11/01 09:18:43;;;;;;;8.78;5.05;;;;;;;8.93;100.00;100492.48;1826140;78;20978;-76
2022/11/01 09:21:09;;;;;;;11.60;4.70;;;;;;;9.10;100.00;100490.34;1825699;79;20978;-71
2022/11/01 09:23:38;;;;;;;12.07;4.97;;;;;;;9.32;100.00;100488.22;1811314;78;21029;-78
2022/11/01 09:26:09;;;;;;;11.20;5.05;;;;;;;9.33;100.00;100482.31;1788311;78;21464;-74
2022/11/01 09:28:36;;;;;;;13.93;6.72;;;;;;;9.46;100.00;100487.70;1791784;78;21027;-75
2022/11/01 09:31:05;;;;;;;7.67;4.08;;;;;;;9.44;100.00;100484.81;1760173;79;21006;-77
2022/11/01 09:33:32;;;;;;;9.75;5.00;;;;;;;9.27;100.00;100487.83;1798029;78;21014;-73
2022/11/01 09:35:59;;;;;;;6.05;3.50;;;;;;;9.14;100.00;100485.50;1797858;78;21069;-77
2022/11/01 09:38:26;;;;;;;16.50;8.30;;;;;;;9.12;100.00;100484.80;1795734;80;21041;-73
2022/11/01 09:41:03;;;;;;;15.60;7.40;;;;;;;9.26;100.00;100484.77;1790439;78;21060;-75
2022/11/01 09:43:32;;;;;;;16.97;8.35;;;;;;;9.47;100.00;100475.91;1797733;78;21061;-72
2022/11/01 09:46:00;;;;;;;15.83;7.62;;;;;;;9.66;100.00;100473.54;1809219;78;20990;-73
2022/11/01 09:48:29;;;;;;;9.00;3.70;;;;;;;9.83;100.00;100475.06;1792221;79;21025;-74
2022/11/01 09:50:56;;;;;;;7.00;4.10;;;;;;;9.98;100.00;100468.08;1731289;81;21062;-75
2022/11/01 09:53:25;;;;;;;12.73;5.47;;;;;;;10.09;100.00;100465.62;1722840;81;20953;-77
2022/11/01 09:56:12;;;;;;;19.17;7.47;;;;;;;10.12;100.00;100458.56;1729239;81;21028;-75
2022/11/01 09:58:54;;;;;;;7.17;3.90;;;;;;;10.32;100.00;100465.14;1716528;81;21538;-74
2022/11/01 10:01:40;;;;;;;19.25;10.03;;;;;;;10.51;100.00;100459.52;1734369;81;21603;-79
2022/11/01 10:04:29;;;;;;;15.72;7.22;;;;;;;10.52;100.00;100472.55;1743448;81;20997;-76
2022/11/01 10:07:43;;;;;;;11.48;5.60;;;;;;;10.40;100.00;100466.05;1727871;82;21436;-77
2022/11/01 10:10:52;;;;;;;24.85;13.98;;;;;;;10.50;100.00;100453.78;1727189;81;21465;-79
2022/11/01 10:13:44;;;;;;;15.63;7.95;;;;;;;10.75;100.00;100457.96;1724435;81;21154;-76
2022/11/01 10:16:42;;;;;;;10.30;5.10;;;;;;;10.79;100.00;100462.87;1752948;81;21009;-76
2022/11/01 10:19:16;;;;;;;6.30;2.50;;;;;;;10.82;100.00;100469.31;1729959;81;21513;-75
2022/11/01 10:21:48;;;;;;;6.17;3.98;;;;;;;10.92;100.00;100458.86;1651228;86;21018;-75
2022/11/01 10:24:31;;;;;;;14.95;7.45;;;;;;;10.94;100.00;100472.59;1647726;86;21523;-73
2022/11/01 10:27:28;;;;;;;17.73;7.83;;;;;;;11.10;100.00;100466.39;1660726;85;21098;-75
2022/11/01 10:30:05;;;;;;;13.72;6.45;;;;;;;11.23;100.00;100465.08;1665061;85;21033;-79
2022/11/01 10:32:44;;;;;;;18.10;9.60;;;;;;;11.13;100.00;100455.21;1665107;86;21571;-73
2022/11/01 10:35:24;;;;;;;7.12;4.00;;;;;;;10.98;100.00;100456.36;1667046;85;21109;-70
2022/11/01 10:38:07;;;;;;;8.08;3.30;;;;;;;10.90;100.00;100453.61;1583660;90;21119;-72
2022/11/01 10:40:41;;;;;;;6.62;3.58;;;;;;;10.78;100.00;100446.31;1578551;90;21085;-76
2022/11/01 10:43:17;;;;;;;5.90;3.00;;;;;;;10.85;100.00;100437.53;1490893;94;21054;-73
2022/11/01 10:45:45;;;;;;;18.00;10.13;;;;;;;10.90;100.00;100444.14;1492322;95;21202;-75
2022/11/01 10:48:18;;;;;;;11.68;5.65;;;;;;;10.97;100.00;100455.16;1522120;93;21178;-75
2022/11/01 10:50:45;;;;;;;6.55;3.87;;;;;;;10.94;100.00;100452.30;1558766;91;21131;-76
2022/11/01 10:53:13;;;;;;;12.03;4.97;;;;;;;10.96;100.00;100452.98;1565092;90;21102;-79
2022/11/01 10:55:50;;;;;;;8.20;2.65;;;;;;;10.95;100.00;100455.84;1548643;91;21100;-76
2022/11/01 10:58:59;;;;;;;6.20;3.30;;;;;;;10.87;100.00;100449.91;1553136;91;21727;-75
2022/11/01 11:01:30;;;;;;;9.18;4.40;;;;;;;10.86;100.00;100448.71;1495610;95;21185;-76
2022/11/01 11:04:00;;;;;;;10.20;5.65;;;;;;;10.96;100.00;100449.40;1491742;95;21156;-74
2022/11/01 11:06:27;;;;;;;15.83;7.85;;;;;;;11.07;100.00;100450.98;1497297;94;21086;-78
2022/11/01 11:08:55;;;;;;;9.40;4.95;;;;;;;11.23;100.00;100448.84;1490983;94;21063;-78
2022/11/01 11:11:33;;;;;;;10.65;5.22;;;;;;;11.39;100.00;100456.47;1505946;94;21180;-80
2022/11/01 11:14:04;;;;;;;13.53;6.45;;;;;;;11.38;100.00;100445.80;1508625;93;21060;-74
2022/11/01 11:16:48;;;;;;;12.73;7.03;;;;;;;11.31;100.00;100454.25;1513078;93;21100;-74
2022/11/01 11:19:32;;;;;;;6.85;4.40;;;;;;;11.20;100.00;100461.66;1507616;95;21135;-76
2022/11/01 11:22:01;;;;;;;11.18;5.30;;;;;;;11.11;100.00;100450.48;1505385;95;21130;-78
2022/11/01 11:24:38;;;;;;;14.35;6.33;;;;;;;11.12;100.00;100452.66;1531828;92;21091;-78
2022/11/01 11:27:30;;;;;;;12.13;6.55;;;;;;;11.08;100.00;100447.25;1497563;93;21148;-76
2022/11/01 11:30:05;;;;;;;12.10;5.62;;;;;;;11.11;100.00;100451.83;1444608;98;21113;-77
2022/11/01 11:32:34;;;;;;;12.33;5.87;;;;;;;11.18;100.00;100439.33;1468527;95;21126;-75
2022/11/01 11:35:07;;;;;;;15.40;7.25;;;;;;;11.25;100.00;100440.87;1497923;94;21115;-77
2022/11/01 11:37:34;;;;;;;14.05;5.75;;;;;;;11.34;100.00;100439.03;1445964;98;21105;-75
2022/11/01 11:40:41;;;;;;;13.98;5.22;;;;;;;11.35;100.00;100439.36;1460789;97;21086;-79
2022/11/01 11:43:40;;;;;;;;;;;;;;;;;;;;;
2022/11/01 11:46:22;;;;;;;7.22;4.00;;;;;;;11.54;100.00;100443.63;1433241;99;21138;-73